sensor_id;sensor_type;location;lat;lon;timestamp;temperature;humidity
64563;SHT31;50961;48.184;11.636;2022-07-06T00:01:35;19.99;54.95
64563;SHT31;50961;48.184;11.636;2022-07-06T00:04:04;19.89;55.34
64563;SHT31;50961;48.184;11.636;2022-07-06T00:06:29;19.92;55.42
64563;SHT31;50961;48.184;11.636;2022-07-06T00:08:55;20.14;54.85
64563;SHT31;50961;48.184;11.636;2022-07-06T00:11:20;20.04;55.22
64563;SHT31;50961;48.184;11.636;2022-07-06T00:13:46;19.95;55.33
64563;SHT31;50961;48.184;11.636;2022-07-06T00:16:12;19.99;55.30
64563;SHT31;50961;48.184;11.636;2022-07-06T00:18:37;20.06;55.26
64563;SHT31;50961;48.184;11.636;2022-07-06T00:21:02;20.02;55.42
64563;SHT31;50961;48.184;11.636;2022-07-06T00:23:28;19.88;55.98
64563;SHT31;50961;48.184;11.636;2022-07-06T00:25:53;19.89;55.83
64563;SHT31;50961;48.184;11.636;2022-07-06T00:28:19;19.82;55.85
64563;SHT31;50961;48.184;11.636;2022-07-06T00:30:44;19.81;56.33
64563;SHT31;50961;48.184;11.636;2022-07-06T00:33:09;19.75;56.77
64563;SHT31;50961;48.184;11.636;2022-07-06T00:35:35;19.64;57.51
64563;SHT31;50961;48.184;11.636;2022-07-06T00:38:00;19.70;57.26
64563;SHT31;50961;48.184;11.636;2022-07-06T00:40:26;19.70;57.76
64563;SHT31;50961;48.184;11.636;2022-07-06T00:42:51;19.60;58.26
64563;SHT31;50961;48.184;11.636;2022-07-06T00:45:17;19.63;58.46
64563;SHT31;50961;48.184;11.636;2022-07-06T00:47:43;19.53;58.92
64563;SHT31;50961;48.184;11.636;2022-07-06T00:50:13;19.63;58.77
64563;SHT31;50961;48.184;11.636;2022-07-06T00:52:39;19.67;59.01
64563;SHT31;50961;48.184;11.636;2022-07-06T00:55:04;19.46;59.86
64563;SHT31;50961;48.184;11.636;2022-07-06T00:57:30;19.41;60.07
64563;SHT31;50961;48.184;11.636;2022-07-06T00:59:56;19.40;60.46
64563;SHT31;50961;48.184;11.636;2022-07-06T01:02:21;19.31;60.68
64563;SHT31;50961;48.184;11.636;2022-07-06T01:04:47;19.36;60.62
64563;SHT31;50961;48.184;11.636;2022-07-06T01:07:13;19.26;61.32
64563;SHT31;50961;48.184;11.636;2022-07-06T01:09:39;19.24;61.25
64563;SHT31;50961;48.184;11.636;2022-07-06T01:12:04;19.29;61.18
64563;SHT31;50961;48.184;11.636;2022-07-06T01:14:30;19.11;62.06
64563;SHT31;50961;48.184;11.636;2022-07-06T01:16:57;19.12;62.06
64563;SHT31;50961;48.184;11.636;2022-07-06T01:19:22;19.03;62.39
64563;SHT31;50961;48.184;11.636;2022-07-06T01:21:48;19.01;62.70
64563;SHT31;50961;48.184;11.636;2022-07-06T01:24:13;19.06;62.62
64563;SHT31;50961;48.184;11.636;2022-07-06T01:26:38;19.15;62.18
64563;SHT31;50961;48.184;11.636;2022-07-06T01:29:04;19.09;62.44
64563;SHT31;50961;48.184;11.636;2022-07-06T01:31:30;19.01;62.62
64563;SHT31;50961;48.184;11.636;2022-07-06T01:33:56;19.05;62.60
64563;SHT31;50961;48.184;11.636;2022-07-06T01:36:22;19.05;62.54
64563;SHT31;50961;48.184;11.636;2022-07-06T01:38:53;19.05;62.67
64563;SHT31;50961;48.184;11.636;2022-07-06T01:41:18;18.98;63.19
64563;SHT31;50961;48.184;11.636;2022-07-06T01:43:44;18.99;63.10
64563;SHT31;50961;48.184;11.636;2022-07-06T01:46:10;18.94;63.61
64563;SHT31;50961;48.184;11.636;2022-07-06T01:48:36;18.95;63.67
64563;SHT31;50961;48.184;11.636;2022-07-06T01:51:03;18.99;63.83
64563;SHT31;50961;48.184;11.636;2022-07-06T01:53:28;18.89;63.75
64563;SHT31;50961;48.184;11.636;2022-07-06T01:55:54;18.88;63.90
64563;SHT31;50961;48.184;11.636;2022-07-06T01:58:19;18.87;63.80
64563;SHT31;50961;48.184;11.636;2022-07-06T02:00:44;18.81;64.08
64563;SHT31;50961;48.184;11.636;2022-07-06T02:03:10;18.78;64.29
64563;SHT31;50961;48.184;11.636;2022-07-06T02:05:35;18.61;64.77
64563;SHT31;50961;48.184;11.636;2022-07-06T02:08:00;18.58;65.26
64563;SHT31;50961;48.184;11.636;2022-07-06T02:10:26;18.60;65.06
64563;SHT31;50961;48.184;11.636;2022-07-06T02:12:51;18.54;65.25
64563;SHT31;50961;48.184;11.636;2022-07-06T02:15:17;18.58;65.08
64563;SHT31;50961;48.184;11.636;2022-07-06T02:17:42;18.48;65.39
64563;SHT31;50961;48.184;11.636;2022-07-06T02:20:08;18.48;65.86
64563;SHT31;50961;48.184;11.636;2022-07-06T02:22:33;18.44;65.94
64563;SHT31;50961;48.184;11.636;2022-07-06T02:24:59;18.37;66.32
64563;SHT31;50961;48.184;11.636;2022-07-06T02:27:24;18.45;65.91
64563;SHT31;50961;48.184;11.636;2022-07-06T02:29:50;18.38;66.29
64563;SHT31;50961;48.184;11.636;2022-07-06T02:32:15;18.26;66.41
64563;SHT31;50961;48.184;11.636;2022-07-06T02:34:41;18.29;66.27
64563;SHT31;50961;48.184;11.636;2022-07-06T02:37:06;18.26;66.36
64563;SHT31;50961;48.184;11.636;2022-07-06T02:39:31;18.27;66.17
64563;SHT31;50961;48.184;11.636;2022-07-06T02:41:57;18.16;66.42
64563;SHT31;50961;48.184;11.636;2022-07-06T02:44:22;18.20;66.41
64563;SHT31;50961;48.184;11.636;2022-07-06T02:46:48;18.22;66.47
64563;SHT31;50961;48.184;11.636;2022-07-06T02:49:13;18.06;66.77
64563;SHT31;50961;48.184;11.636;2022-07-06T02:51:38;17.99;67.27
64563;SHT31;50961;48.184;11.636;2022-07-06T02:54:04;18.02;67.10
64563;SHT31;50961;48.184;11.636;2022-07-06T02:56:29;17.93;67.46
64563;SHT31;50961;48.184;11.636;2022-07-06T02:58:55;17.90;67.86
64563;SHT31;50961;48.184;11.636;2022-07-06T03:01:20;17.79;68.40
64563;SHT31;50961;48.184;11.636;2022-07-06T03:03:46;17.88;68.13
64563;SHT31;50961;48.184;11.636;2022-07-06T03:06:11;17.78;68.70
64563;SHT31;50961;48.184;11.636;2022-07-06T03:08:37;17.77;68.83
64563;SHT31;50961;48.184;11.636;2022-07-06T03:11:02;17.61;69.59
64563;SHT31;50961;48.184;11.636;2022-07-06T03:13:28;17.68;69.54
64563;SHT31;50961;48.184;11.636;2022-07-06T03:15:54;17.75;69.38
64563;SHT31;50961;48.184;11.636;2022-07-06T03:18:19;17.78;69.55
64563;SHT31;50961;48.184;11.636;2022-07-06T03:20:45;17.72;69.89
64563;SHT31;50961;48.184;11.636;2022-07-06T03:23:10;17.71;70.01
64563;SHT31;50961;48.184;11.636;2022-07-06T03:25:36;17.75;70.16
64563;SHT31;50961;48.184;11.636;2022-07-06T03:28:01;17.72;70.32
64563;SHT31;50961;48.184;11.636;2022-07-06T03:30:26;17.65;70.46
64563;SHT31;50961;48.184;11.636;2022-07-06T03:32:52;17.58;71.07
64563;SHT31;50961;48.184;11.636;2022-07-06T03:35:17;17.52;71.33
64563;SHT31;50961;48.184;11.636;2022-07-06T03:37:43;17.50;71.40
64563;SHT31;50961;48.184;11.636;2022-07-06T03:40:08;17.45;71.78
64563;SHT31;50961;48.184;11.636;2022-07-06T03:42:35;17.47;72.05
64563;SHT31;50961;48.184;11.636;2022-07-06T03:45:01;17.47;71.83
64563;SHT31;50961;48.184;11.636;2022-07-06T03:47:26;17.41;72.15
64563;SHT31;50961;48.184;11.636;2022-07-06T03:49:52;17.34;72.15
64563;SHT31;50961;48.184;11.636;2022-07-06T03:52:17;17.35;72.39
64563;SHT31;50961;48.184;11.636;2022-07-06T03:54:42;17.41;72.22
64563;SHT31;50961;48.184;11.636;2022-07-06T03:57:08;17.48;72.12
64563;SHT31;50961;48.184;11.636;2022-07-06T03:59:33;17.52;71.90
64563;SHT31;50961;48.184;11.636;2022-07-06T04:01:58;17.54;71.97
64563;SHT31;50961;48.184;11.636;2022-07-06T04:04:24;17.47;72.14
64563;SHT31;50961;48.184;11.636;2022-07-06T04:06:49;17.50;72.22
64563;SHT31;50961;48.184;11.636;2022-07-06T04:09:15;17.48;72.37
64563;SHT31;50961;48.184;11.636;2022-07-06T04:11:40;17.59;72.31
64563;SHT31;50961;48.184;11.636;2022-07-06T04:14:06;17.62;72.11
64563;SHT31;50961;48.184;11.636;2022-07-06T04:16:31;17.65;71.97
64563;SHT31;50961;48.184;11.636;2022-07-06T04:18:56;17.55;72.45
64563;SHT31;50961;48.184;11.636;2022-07-06T04:21:22;17.75;71.55
64563;SHT31;50961;48.184;11.636;2022-07-06T04:23:47;17.78;71.63
64563;SHT31;50961;48.184;11.636;2022-07-06T04:26:12;17.83;71.25
64563;SHT31;50961;48.184;11.636;2022-07-06T04:28:38;17.86;71.35
64563;SHT31;50961;48.184;11.636;2022-07-06T04:31:03;17.96;71.08
64563;SHT31;50961;48.184;11.636;2022-07-06T04:33:29;18.09;70.75
64563;SHT31;50961;48.184;11.636;2022-07-06T04:35:54;18.13;70.65
64563;SHT31;50961;48.184;11.636;2022-07-06T04:38:19;18.12;70.81
64563;SHT31;50961;48.184;11.636;2022-07-06T04:40:45;18.18;70.69
64563;SHT31;50961;48.184;11.636;2022-07-06T04:43:12;18.32;70.48
64563;SHT31;50961;48.184;11.636;2022-07-06T04:45:37;18.30;70.81
64563;SHT31;50961;48.184;11.636;2022-07-06T04:48:02;18.34;70.56
64563;SHT31;50961;48.184;11.636;2022-07-06T04:50:28;18.40;70.39
64563;SHT31;50961;48.184;11.636;2022-07-06T04:52:54;18.43;70.37
64563;SHT31;50961;48.184;11.636;2022-07-06T04:55:19;18.53;70.11
64563;SHT31;50961;48.184;11.636;2022-07-06T04:57:44;18.53;70.40
64563;SHT31;50961;48.184;11.636;2022-07-06T05:00:10;18.57;70.25
64563;SHT31;50961;48.184;11.636;2022-07-06T05:02:36;18.65;70.08
64563;SHT31;50961;48.184;11.636;2022-07-06T05:05:02;18.72;69.82
64563;SHT31;50961;48.184;11.636;2022-07-06T05:07:27;18.67;69.95
64563;SHT31;50961;48.184;11.636;2022-07-06T05:09:54;18.63;70.58
64563;SHT31;50961;48.184;11.636;2022-07-06T05:12:20;18.74;70.05
64563;SHT31;50961;48.184;11.636;2022-07-06T05:14:45;18.79;69.71
64563;SHT31;50961;48.184;11.636;2022-07-06T05:17:11;18.87;69.62
64563;SHT31;50961;48.184;11.636;2022-07-06T05:19:36;18.96;69.27
64563;SHT31;50961;48.184;11.636;2022-07-06T05:22:02;19.05;69.41
64563;SHT31;50961;48.184;11.636;2022-07-06T05:24:27;19.11;68.64
64563;SHT31;50961;48.184;11.636;2022-07-06T05:26:53;19.22;68.29
64563;SHT31;50961;48.184;11.636;2022-07-06T05:29:18;19.34;66.96
64563;SHT31;50961;48.184;11.636;2022-07-06T05:31:43;19.34;67.00
64563;SHT31;50961;48.184;11.636;2022-07-06T05:34:09;19.39;67.12
64563;SHT31;50961;48.184;11.636;2022-07-06T05:36:34;19.50;66.77
64563;SHT31;50961;48.184;11.636;2022-07-06T05:39:00;19.53;65.93
64563;SHT31;50961;48.184;11.636;2022-07-06T05:41:25;19.60;65.37
64563;SHT31;50961;48.184;11.636;2022-07-06T05:43:51;19.61;65.19
64563;SHT31;50961;48.184;11.636;2022-07-06T05:46:16;19.68;65.46
64563;SHT31;50961;48.184;11.636;2022-07-06T05:48:41;19.73;64.83
64563;SHT31;50961;48.184;11.636;2022-07-06T05:51:42;19.74;63.79
64563;SHT31;50961;48.184;11.636;2022-07-06T05:54:07;19.67;64.28
64563;SHT31;50961;48.184;11.636;2022-07-06T05:56:33;19.77;63.76
64563;SHT31;50961;48.184;11.636;2022-07-06T05:58:58;19.73;63.77
64563;SHT31;50961;48.184;11.636;2022-07-06T06:01:23;19.70;64.18
64563;SHT31;50961;48.184;11.636;2022-07-06T06:03:49;19.74;64.08
64563;SHT31;50961;48.184;11.636;2022-07-06T06:06:14;19.78;63.87
64563;SHT31;50961;48.184;11.636;2022-07-06T06:08:40;19.87;64.19
64563;SHT31;50961;48.184;11.636;2022-07-06T06:11:05;19.89;64.04
64563;SHT31;50961;48.184;11.636;2022-07-06T06:13:30;19.95;64.47
64563;SHT31;50961;48.184;11.636;2022-07-06T06:15:56;20.06;64.95
64563;SHT31;50961;48.184;11.636;2022-07-06T06:18:21;20.18;64.22
64563;SHT31;50961;48.184;11.636;2022-07-06T06:20:47;20.01;63.69
64563;SHT31;50961;48.184;11.636;2022-07-06T06:23:12;20.12;64.25
64563;SHT31;50961;48.184;11.636;2022-07-06T06:25:39;20.16;64.43
64563;SHT31;50961;48.184;11.636;2022-07-06T06:28:07;20.19;63.66
64563;SHT31;50961;48.184;11.636;2022-07-06T06:30:32;20.25;62.71
64563;SHT31;50961;48.184;11.636;2022-07-06T06:33:16;20.29;62.84
64563;SHT31;50961;48.184;11.636;2022-07-06T06:35:43;20.32;62.19
64563;SHT31;50961;48.184;11.636;2022-07-06T06:38:09;20.37;62.64
64563;SHT31;50961;48.184;11.636;2022-07-06T06:40:34;20.45;62.29
64563;SHT31;50961;48.184;11.636;2022-07-06T06:43:00;20.53;60.14
64563;SHT31;50961;48.184;11.636;2022-07-06T06:45:25;20.46;59.98
64563;SHT31;50961;48.184;11.636;2022-07-06T06:47:50;20.49;60.33
64563;SHT31;50961;48.184;11.636;2022-07-06T06:50:16;20.50;59.72
64563;SHT31;50961;48.184;11.636;2022-07-06T06:52:41;20.59;60.12
64563;SHT31;50961;48.184;11.636;2022-07-06T06:55:07;20.56;59.41
64563;SHT31;50961;48.184;11.636;2022-07-06T06:57:33;20.54;59.55
64563;SHT31;50961;48.184;11.636;2022-07-06T06:59:58;20.62;60.20
64563;SHT31;50961;48.184;11.636;2022-07-06T07:02:23;20.60;60.35
64563;SHT31;50961;48.184;11.636;2022-07-06T07:04:49;20.62;60.99
64563;SHT31;50961;48.184;11.636;2022-07-06T07:07:14;20.66;61.53
64563;SHT31;50961;48.184;11.636;2022-07-06T07:09:40;20.76;62.27
64563;SHT31;50961;48.184;11.636;2022-07-06T07:12:06;20.84;62.06
64563;SHT31;50961;48.184;11.636;2022-07-06T07:14:31;20.97;61.53
64563;SHT31;50961;48.184;11.636;2022-07-06T07:16:57;21.01;61.02
64563;SHT31;50961;48.184;11.636;2022-07-06T07:19:22;21.10;60.56
64563;SHT31;50961;48.184;11.636;2022-07-06T07:21:47;21.12;60.71
64563;SHT31;50961;48.184;11.636;2022-07-06T07:24:13;21.07;58.16
64563;SHT31;50961;48.184;11.636;2022-07-06T07:26:38;21.10;58.94
64563;SHT31;50961;48.184;11.636;2022-07-06T07:29:04;21.18;58.91
64563;SHT31;50961;48.184;11.636;2022-07-06T07:31:29;21.28;59.17
64563;SHT31;50961;48.184;11.636;2022-07-06T07:33:54;21.35;57.63
64563;SHT31;50961;48.184;11.636;2022-07-06T07:36:22;21.41;56.84
64563;SHT31;50961;48.184;11.636;2022-07-06T07:38:49;21.52;56.05
64563;SHT31;50961;48.184;11.636;2022-07-06T07:41:14;21.35;56.52
64563;SHT31;50961;48.184;11.636;2022-07-06T07:43:39;21.59;56.02
64563;SHT31;50961;48.184;11.636;2022-07-06T07:46:05;21.62;56.63
64563;SHT31;50961;48.184;11.636;2022-07-06T07:48:30;21.73;55.85
64563;SHT31;50961;48.184;11.636;2022-07-06T07:50:55;21.86;55.69
64563;SHT31;50961;48.184;11.636;2022-07-06T07:53:21;21.87;56.04
64563;SHT31;50961;48.184;11.636;2022-07-06T07:55:46;21.86;55.59
64563;SHT31;50961;48.184;11.636;2022-07-06T07:58:12;22.01;55.56
64563;SHT31;50961;48.184;11.636;2022-07-06T08:00:37;22.11;55.07
64563;SHT31;50961;48.184;11.636;2022-07-06T08:03:03;22.31;56.57
64563;SHT31;50961;48.184;11.636;2022-07-06T08:05:28;22.44;56.70
64563;SHT31;50961;48.184;11.636;2022-07-06T08:07:54;22.47;55.20
64563;SHT31;50961;48.184;11.636;2022-07-06T08:10:19;22.59;54.85
64563;SHT31;50961;48.184;11.636;2022-07-06T08:12:45;22.51;55.08
64563;SHT31;50961;48.184;11.636;2022-07-06T08:15:10;22.56;53.72
64563;SHT31;50961;48.184;11.636;2022-07-06T08:17:36;22.77;55.06
64563;SHT31;50961;48.184;11.636;2022-07-06T08:20:01;22.82;55.20
64563;SHT31;50961;48.184;11.636;2022-07-06T08:22:27;22.93;54.64
64563;SHT31;50961;48.184;11.636;2022-07-06T08:24:55;22.92;54.55
64563;SHT31;50961;48.184;11.636;2022-07-06T08:27:20;22.98;54.09
64563;SHT31;50961;48.184;11.636;2022-07-06T08:29:45;23.10;53.56
64563;SHT31;50961;48.184;11.636;2022-07-06T08:32:11;23.19;54.84
64563;SHT31;50961;48.184;11.636;2022-07-06T08:34:36;23.28;55.06
64563;SHT31;50961;48.184;11.636;2022-07-06T08:37:02;23.38;55.03
64563;SHT31;50961;48.184;11.636;2022-07-06T08:39:27;23.43;52.39
64563;SHT31;50961;48.184;11.636;2022-07-06T08:41:55;23.55;52.69
64563;SHT31;50961;48.184;11.636;2022-07-06T08:44:23;23.61;51.79
64563;SHT31;50961;48.184;11.636;2022-07-06T08:46:49;23.78;52.52
64563;SHT31;50961;48.184;11.636;2022-07-06T08:49:17;23.96;52.49
64563;SHT31;50961;48.184;11.636;2022-07-06T08:51:42;24.08;52.00
64563;SHT31;50961;48.184;11.636;2022-07-06T08:54:08;24.17;52.78
64563;SHT31;50961;48.184;11.636;2022-07-06T08:56:34;24.33;51.18
64563;SHT31;50961;48.184;11.636;2022-07-06T08:59:00;24.53;50.61
64563;SHT31;50961;48.184;11.636;2022-07-06T09:01:25;24.70;51.68
64563;SHT31;50961;48.184;11.636;2022-07-06T09:03:52;25.04;52.17
64563;SHT31;50961;48.184;11.636;2022-07-06T09:06:23;25.20;50.83
64563;SHT31;50961;48.184;11.636;2022-07-06T09:08:50;25.14;49.36
64563;SHT31;50961;48.184;11.636;2022-07-06T09:11:17;25.15;49.30
64563;SHT31;50961;48.184;11.636;2022-07-06T09:13:43;25.49;49.38
64563;SHT31;50961;48.184;11.636;2022-07-06T09:16:10;25.47;47.99
64563;SHT31;50961;48.184;11.636;2022-07-06T09:18:39;25.47;47.27
64563;SHT31;50961;48.184;11.636;2022-07-06T09:21:07;25.70;48.53
64563;SHT31;50961;48.184;11.636;2022-07-06T09:23:33;25.90;48.15
64563;SHT31;50961;48.184;11.636;2022-07-06T09:26:02;25.94;46.31
64563;SHT31;50961;48.184;11.636;2022-07-06T09:28:57;26.02;46.51
64563;SHT31;50961;48.184;11.636;2022-07-06T09:31:22;26.25;46.19
64563;SHT31;50961;48.184;11.636;2022-07-06T09:34:02;26.38;44.83
64563;SHT31;50961;48.184;11.636;2022-07-06T09:36:44;26.49;44.57
64563;SHT31;50961;48.184;11.636;2022-07-06T09:39:22;26.39;45.84
64563;SHT31;50961;48.184;11.636;2022-07-06T09:41:49;26.52;45.40
64563;SHT31;50961;48.184;11.636;2022-07-06T09:44:36;26.75;45.27
64563;SHT31;50961;48.184;11.636;2022-07-06T09:47:10;26.83;45.89
64563;SHT31;50961;48.184;11.636;2022-07-06T09:49:37;26.91;44.22
64563;SHT31;50961;48.184;11.636;2022-07-06T09:52:04;26.97;44.37
64563;SHT31;50961;48.184;11.636;2022-07-06T09:54:30;26.99;44.05
64563;SHT31;50961;48.184;11.636;2022-07-06T09:56:57;27.11;44.33
64563;SHT31;50961;48.184;11.636;2022-07-06T09:59:28;27.38;44.82
64563;SHT31;50961;48.184;11.636;2022-07-06T10:01:55;27.63;44.27
64563;SHT31;50961;48.184;11.636;2022-07-06T10:04:22;27.65;43.76
64563;SHT31;50961;48.184;11.636;2022-07-06T10:06:49;27.85;43.73
64563;SHT31;50961;48.184;11.636;2022-07-06T10:09:15;28.06;43.81
64563;SHT31;50961;48.184;11.636;2022-07-06T10:11:44;28.07;43.75
64563;SHT31;50961;48.184;11.636;2022-07-06T10:14:12;28.10;42.07
64563;SHT31;50961;48.184;11.636;2022-07-06T10:16:39;28.07;41.76
64563;SHT31;50961;48.184;11.636;2022-07-06T10:19:06;28.21;42.14
64563;SHT31;50961;48.184;11.636;2022-07-06T10:21:35;28.39;41.85
64563;SHT31;50961;48.184;11.636;2022-07-06T10:24:00;28.21;42.79
64563;SHT31;50961;48.184;11.636;2022-07-06T10:26:26;28.17;42.00
64563;SHT31;50961;48.184;11.636;2022-07-06T10:28:52;28.23;42.19
64563;SHT31;50961;48.184;11.636;2022-07-06T10:31:19;28.28;41.60
64563;SHT31;50961;48.184;11.636;2022-07-06T10:33:45;28.16;41.70
64563;SHT31;50961;48.184;11.636;2022-07-06T10:36:11;28.25;41.82
64563;SHT31;50961;48.184;11.636;2022-07-06T10:38:37;28.50;43.54
64563;SHT31;50961;48.184;11.636;2022-07-06T10:41:08;28.47;43.52
64563;SHT31;50961;48.184;11.636;2022-07-06T10:43:44;28.61;42.37
64563;SHT31;50961;48.184;11.636;2022-07-06T10:46:11;28.76;41.50
64563;SHT31;50961;48.184;11.636;2022-07-06T10:48:43;29.12;43.68
64563;SHT31;50961;48.184;11.636;2022-07-06T10:51:11;28.94;41.64
64563;SHT31;50961;48.184;11.636;2022-07-06T10:53:37;29.06;42.52
64563;SHT31;50961;48.184;11.636;2022-07-06T10:56:08;29.23;41.09
64563;SHT31;50961;48.184;11.636;2022-07-06T10:58:47;29.12;38.74
64563;SHT31;50961;48.184;11.636;2022-07-06T11:01:14;28.83;39.08
64563;SHT31;50961;48.184;11.636;2022-07-06T11:04:16;28.89;39.18
64563;SHT31;50961;48.184;11.636;2022-07-06T11:06:37;28.75;40.78
64563;SHT31;50961;48.184;11.636;2022-07-06T11:09:08;28.28;39.31
64563;SHT31;50961;48.184;11.636;2022-07-06T11:14:08;27.79;40.63
64563;SHT31;50961;48.184;11.636;2022-07-06T11:16:40;27.62;41.72
64563;SHT31;50961;48.184;11.636;2022-07-06T11:19:26;27.83;41.77
64563;SHT31;50961;48.184;11.636;2022-07-06T11:21:56;28.14;41.26
64563;SHT31;50961;48.184;11.636;2022-07-06T11:24:28;28.20;40.00
64563;SHT31;50961;48.184;11.636;2022-07-06T11:26:54;28.02;40.81
64563;SHT31;50961;48.184;11.636;2022-07-06T11:29:21;27.75;40.28
64563;SHT31;50961;48.184;11.636;2022-07-06T11:31:48;27.76;40.45
64563;SHT31;50961;48.184;11.636;2022-07-06T11:34:19;27.26;41.20
64563;SHT31;50961;48.184;11.636;2022-07-06T11:36:45;27.59;40.91
64563;SHT31;50961;48.184;11.636;2022-07-06T11:39:11;27.51;42.40
64563;SHT31;50961;48.184;11.636;2022-07-06T11:41:37;27.72;41.71
64563;SHT31;50961;48.184;11.636;2022-07-06T11:44:03;27.72;40.64
64563;SHT31;50961;48.184;11.636;2022-07-06T11:46:35;27.31;40.75
64563;SHT31;50961;48.184;11.636;2022-07-06T11:49:06;27.62;41.53
64563;SHT31;50961;48.184;11.636;2022-07-06T11:51:34;27.79;42.74
64563;SHT31;50961;48.184;11.636;2022-07-06T11:54:01;27.96;41.34
64563;SHT31;50961;48.184;11.636;2022-07-06T11:56:31;27.95;40.44
64563;SHT31;50961;48.184;11.636;2022-07-06T11:58:58;28.17;39.38
64563;SHT31;50961;48.184;11.636;2022-07-06T12:01:25;28.03;39.31
64563;SHT31;50961;48.184;11.636;2022-07-06T12:03:52;27.82;38.87
64563;SHT31;50961;48.184;11.636;2022-07-06T12:06:21;27.48;38.54
64563;SHT31;50961;48.184;11.636;2022-07-06T12:08:58;27.63;39.41
64563;SHT31;50961;48.184;11.636;2022-07-06T12:11:26;27.58;38.99
64563;SHT31;50961;48.184;11.636;2022-07-06T12:13:54;27.52;39.99
64563;SHT31;50961;48.184;11.636;2022-07-06T12:16:21;27.70;41.05
64563;SHT31;50961;48.184;11.636;2022-07-06T12:18:49;28.06;42.05
64563;SHT31;50961;48.184;11.636;2022-07-06T12:21:18;28.21;39.14
64563;SHT31;50961;48.184;11.636;2022-07-06T12:23:48;28.21;38.48
64563;SHT31;50961;48.184;11.636;2022-07-06T12:26:15;28.39;39.16
64563;SHT31;50961;48.184;11.636;2022-07-06T12:28:42;28.23;38.84
64563;SHT31;50961;48.184;11.636;2022-07-06T12:31:09;27.99;39.43
64563;SHT31;50961;48.184;11.636;2022-07-06T12:33:34;28.24;39.17
64563;SHT31;50961;48.184;11.636;2022-07-06T12:36:11;28.14;38.93
64563;SHT31;50961;48.184;11.636;2022-07-06T12:38:44;28.27;38.35
64563;SHT31;50961;48.184;11.636;2022-07-06T12:41:09;28.34;38.33
64563;SHT31;50961;48.184;11.636;2022-07-06T12:43:39;28.52;38.78
64563;SHT31;50961;48.184;11.636;2022-07-06T12:46:30;28.43;37.54
64563;SHT31;50961;48.184;11.636;2022-07-06T12:48:57;28.02;38.65
64563;SHT31;50961;48.184;11.636;2022-07-06T12:51:24;28.10;38.32
64563;SHT31;50961;48.184;11.636;2022-07-06T12:53:49;27.99;38.67
64563;SHT31;50961;48.184;11.636;2022-07-06T12:56:15;28.20;38.63
64563;SHT31;50961;48.184;11.636;2022-07-06T12:58:59;28.41;39.34
64563;SHT31;50961;48.184;11.636;2022-07-06T13:01:25;28.62;38.56
64563;SHT31;50961;48.184;11.636;2022-07-06T13:03:55;28.62;38.22
64563;SHT31;50961;48.184;11.636;2022-07-06T13:06:34;28.88;38.41
64563;SHT31;50961;48.184;11.636;2022-07-06T13:09:00;29.17;38.05
64563;SHT31;50961;48.184;11.636;2022-07-06T13:11:26;29.00;37.28
64563;SHT31;50961;48.184;11.636;2022-07-06T13:13:51;29.12;38.01
64563;SHT31;50961;48.184;11.636;2022-07-06T13:16:18;29.30;38.05
64563;SHT31;50961;48.184;11.636;2022-07-06T13:18:43;29.16;37.27
64563;SHT31;50961;48.184;11.636;2022-07-06T13:21:09;29.10;37.06
64563;SHT31;50961;48.184;11.636;2022-07-06T13:23:34;28.85;37.40
64563;SHT31;50961;48.184;11.636;2022-07-06T13:25:59;28.98;38.11
64563;SHT31;50961;48.184;11.636;2022-07-06T13:28:25;29.16;38.14
64563;SHT31;50961;48.184;11.636;2022-07-06T13:30:50;29.13;35.84
64563;SHT31;50961;48.184;11.636;2022-07-06T13:33:16;28.71;34.89
64563;SHT31;50961;48.184;11.636;2022-07-06T13:35:41;28.54;35.02
64563;SHT31;50961;48.184;11.636;2022-07-06T13:38:06;28.60;34.59
64563;SHT31;50961;48.184;11.636;2022-07-06T13:40:33;28.48;34.79
64563;SHT31;50961;48.184;11.636;2022-07-06T13:43:01;28.16;35.11
64563;SHT31;50961;48.184;11.636;2022-07-06T13:45:26;27.90;35.70
64563;SHT31;50961;48.184;11.636;2022-07-06T13:47:52;27.96;36.61
64563;SHT31;50961;48.184;11.636;2022-07-06T13:50:17;28.13;37.96
64563;SHT31;50961;48.184;11.636;2022-07-06T13:52:42;28.24;36.34
64563;SHT31;50961;48.184;11.636;2022-07-06T13:55:08;28.39;36.70
64563;SHT31;50961;48.184;11.636;2022-07-06T13:57:34;28.55;38.20
64563;SHT31;50961;48.184;11.636;2022-07-06T14:00:00;28.88;38.53
64563;SHT31;50961;48.184;11.636;2022-07-06T14:02:25;28.94;38.55
64563;SHT31;50961;48.184;11.636;2022-07-06T14:04:50;29.09;37.51
64563;SHT31;50961;48.184;11.636;2022-07-06T14:07:16;28.89;37.64
64563;SHT31;50961;48.184;11.636;2022-07-06T14:09:41;28.76;37.63
64563;SHT31;50961;48.184;11.636;2022-07-06T14:12:07;28.88;37.90
64563;SHT31;50961;48.184;11.636;2022-07-06T14:14:32;28.95;37.85
64563;SHT31;50961;48.184;11.636;2022-07-06T14:16:58;28.91;36.84
64563;SHT31;50961;48.184;11.636;2022-07-06T14:19:23;29.09;36.00
64563;SHT31;50961;48.184;11.636;2022-07-06T14:21:49;29.13;37.08
64563;SHT31;50961;48.184;11.636;2022-07-06T14:24:14;29.29;37.23
64563;SHT31;50961;48.184;11.636;2022-07-06T14:26:40;29.38;36.10
64563;SHT31;50961;48.184;11.636;2022-07-06T14:29:06;29.34;36.50
64563;SHT31;50961;48.184;11.636;2022-07-06T14:31:31;29.31;36.27
64563;SHT31;50961;48.184;11.636;2022-07-06T14:33:56;29.49;35.30
64563;SHT31;50961;48.184;11.636;2022-07-06T14:36:22;29.51;35.38
64563;SHT31;50961;48.184;11.636;2022-07-06T14:38:47;29.13;35.02
64563;SHT31;50961;48.184;11.636;2022-07-06T14:41:13;29.22;36.41
64563;SHT31;50961;48.184;11.636;2022-07-06T14:43:38;29.42;36.48
64563;SHT31;50961;48.184;11.636;2022-07-06T14:46:04;29.43;36.54
64563;SHT31;50961;48.184;11.636;2022-07-06T14:48:29;29.29;35.91
64563;SHT31;50961;48.184;11.636;2022-07-06T14:50:55;29.25;35.12
64563;SHT31;50961;48.184;11.636;2022-07-06T14:53:20;29.15;35.82
64563;SHT31;50961;48.184;11.636;2022-07-06T14:55:47;29.34;36.65
64563;SHT31;50961;48.184;11.636;2022-07-06T14:58:12;29.38;35.98
64563;SHT31;50961;48.184;11.636;2022-07-06T15:00:38;29.61;37.01
64563;SHT31;50961;48.184;11.636;2022-07-06T15:03:03;29.61;35.94
64563;SHT31;50961;48.184;11.636;2022-07-06T15:05:29;29.82;36.74
64563;SHT31;50961;48.184;11.636;2022-07-06T15:07:54;29.88;36.75
64563;SHT31;50961;48.184;11.636;2022-07-06T15:10:20;29.88;36.56
64563;SHT31;50961;48.184;11.636;2022-07-06T15:12:45;29.63;35.98
64563;SHT31;50961;48.184;11.636;2022-07-06T15:15:12;29.65;36.91